Terminal Aerodrome Forecast
Issued by NWS Corpus Christi, TX

Home | Current Version | Previous Version | Text Only | Print | Product List | Glossary On
Versions: 1 2 3 4 5 6 7 8 9 10 11 12 13 14
000
FTUS44 KCRP 281610 AAA
TAFVCT
TAF AMD
KVCT 281610Z 2816/2912 20008KT P6SM VCTS SCT025CB OVC070
      TEMPO 2816/2820 18018G30KT 4SM TSRA BR BKN025CB
     FM282000 17014G20KT P6SM VCTS SCT045CB OVC250
     FM290000 14010KT P6SM SCT025 OVC250
     FM290600 13004KT P6SM SCT015 OVC250
      TEMPO 2909/2912 OVC015=

USA.gov is the U.S. government's official web portal to all federal, state and local government web resources and services.